Terminal Aerodrome Forecast
Issued by NWS Louisville, KY

Home | Current Version | Previous Version | Text Only | Print | Product List | Glossary On
Versions: 1 2 3 4 5 6 7 8 9 10 11 12 13 14 15
000
FTUS43 KLMK 281100
TAFSDF
TAF
KSDF 281120Z 2812/2918 VRB03KT 6SM BR FEW250
     FM281300 07005KT P6SM SCT040
     FM290100 VRB03KT P6SM SCT250=

USA.gov is the U.S. government's official web portal to all federal, state and local government web resources and services.